sensor_id;sensor_type;location;lat;lon;timestamp;pressure;altitude;pressure_sealevel;temperature;humidity
44103;BME280;29769;42.178;24.742;2023-06-22T00:02:17;99837.00;;;21.41;100.00
44103;BME280;29769;42.178;24.742;2023-06-22T00:05:02;99833.72;;;21.36;100.00
44103;BME280;29769;42.178;24.742;2023-06-22T00:07:46;99840.66;;;21.24;100.00
44103;BME280;29769;42.178;24.742;2023-06-22T00:10:31;99832.09;;;21.18;100.00
44103;BME280;29769;42.178;24.742;2023-06-22T00:13:16;99841.06;;;21.17;100.00
44103;BME280;29769;42.178;24.742;2023-06-22T00:16:02;99837.84;;;21.10;100.00
44103;BME280;29769;42.178;24.742;2023-06-22T00:18:46;99837.91;;;21.09;100.00
44103;BME280;29769;42.178;24.742;2023-06-22T00:21:31;99841.53;;;21.08;100.00
44103;BME280;29769;42.178;24.742;2023-06-22T00:24:16;99842.50;;;21.07;100.00
44103;BME280;29769;42.178;24.742;2023-06-22T00:27:00;99840.09;;;21.02;100.00
44103;BME280;29769;42.178;24.742;2023-06-22T00:29:45;99837.91;;;21.09;100.00
44103;BME280;29769;42.178;24.742;2023-06-22T00:32:29;99843.72;;;21.01;100.00
44103;BME280;29769;42.178;24.742;2023-06-22T00:35:14;99851.13;;;20.96;100.00
44103;BME280;29769;42.178;24.742;2023-06-22T00:37:59;99843.28;;;20.93;100.00
44103;BME280;29769;42.178;24.742;2023-06-22T00:40:48;99849.75;;;20.89;100.00
44103;BME280;29769;42.178;24.742;2023-06-22T00:43:32;99846.44;;;20.84;100.00
44103;BME280;29769;42.178;24.742;2023-06-22T00:46:17;99854.00;;;20.76;100.00
44103;BME280;29769;42.178;24.742;2023-06-22T00:49:01;99852.88;;;20.64;100.00
44103;BME280;29769;42.178;24.742;2023-06-22T00:51:48;99858.16;;;20.66;100.00
44103;BME280;29769;42.178;24.742;2023-06-22T00:54:33;99858.47;;;20.60;100.00
44103;BME280;29769;42.178;24.742;2023-06-22T00:57:19;99858.78;;;20.54;100.00
44103;BME280;29769;42.178;24.742;2023-06-22T01:00:05;99863.28;;;20.36;100.00
44103;BME280;29769;42.178;24.742;2023-06-22T01:02:54;99869.38;;;20.39;100.00
44103;BME280;29769;42.178;24.742;2023-06-22T01:05:39;99860.84;;;19.97;100.00
44103;BME280;29769;42.178;24.742;2023-06-22T01:08:38;99872.00;;;19.71;100.00
44103;BME280;29769;42.178;24.742;2023-06-22T01:11:36;99866.66;;;19.71;100.00
44103;BME280;29769;42.178;24.742;2023-06-22T01:14:23;99872.22;;;19.66;100.00
44103;BME280;29769;42.178;24.742;2023-06-22T01:17:14;99880.75;;;19.56;100.00
44103;BME280;29769;42.178;24.742;2023-06-22T01:20:00;99882.38;;;19.58;100.00
44103;BME280;29769;42.178;24.742;2023-06-22T01:25:45;99862.94;;;19.56;100.00
44103;BME280;29769;42.178;24.742;2023-06-22T01:31:16;99855.84;;;19.36;100.00
44103;BME280;29769;42.178;24.742;2023-06-22T01:34:03;99863.44;;;19.27;100.00
44103;BME280;29769;42.178;24.742;2023-06-22T01:36:49;99858.31;;;19.22;100.00
44103;BME280;29769;42.178;24.742;2023-06-22T01:39:35;99866.09;;;19.27;100.00
44103;BME280;29769;42.178;24.742;2023-06-22T01:42:21;99855.78;;;19.38;100.00
44103;BME280;29769;42.178;24.742;2023-06-22T01:45:05;99850.19;;;19.44;100.00
44103;BME280;29769;42.178;24.742;2023-06-22T01:47:51;99854.72;;;19.23;100.00
44103;BME280;29769;42.178;24.742;2023-06-22T01:50:36;99850.41;;;19.21;100.00
44103;BME280;29769;42.178;24.742;2023-06-22T01:53:21;99846.44;;;19.10;100.00
44103;BME280;29769;42.178;24.742;2023-06-22T01:56:10;99847.81;;;19.00;100.00
44103;BME280;29769;42.178;24.742;2023-06-22T01:59:01;99850.97;;;18.90;100.00
44103;BME280;29769;42.178;24.742;2023-06-22T02:01:51;99857.31;;;18.87;100.00
44103;BME280;29769;42.178;24.742;2023-06-22T02:07:28;99860.13;;;18.65;100.00
44103;BME280;29769;42.178;24.742;2023-06-22T02:10:14;99850.97;;;18.51;100.00
44103;BME280;29769;42.178;24.742;2023-06-22T02:13:00;99846.13;;;18.40;100.00
44103;BME280;29769;42.178;24.742;2023-06-22T02:15:46;99854.41;;;18.34;100.00
44103;BME280;29769;42.178;24.742;2023-06-22T02:18:32;99855.06;;;18.19;100.00
44103;BME280;29769;42.178;24.742;2023-06-22T02:21:16;99859.00;;;18.10;100.00
44103;BME280;29769;42.178;24.742;2023-06-22T02:24:01;99858.72;;;17.96;100.00
44103;BME280;29769;42.178;24.742;2023-06-22T02:26:48;99860.13;;;17.85;100.00
44103;BME280;29769;42.178;24.742;2023-06-22T02:29:33;99858.63;;;17.77;100.00
44103;BME280;29769;42.178;24.742;2023-06-22T02:32:18;99862.28;;;17.75;100.00
44103;BME280;29769;42.178;24.742;2023-06-22T02:35:04;99865.00;;;17.73;100.00
44103;BME280;29769;42.178;24.742;2023-06-22T02:37:50;99866.25;;;17.65;100.00
44103;BME280;29769;42.178;24.742;2023-06-22T02:40:36;99873.63;;;17.58;100.00
44103;BME280;29769;42.178;24.742;2023-06-22T02:43:21;99872.69;;;17.59;100.00
44103;BME280;29769;42.178;24.742;2023-06-22T02:46:05;99876.31;;;17.57;100.00
44103;BME280;29769;42.178;24.742;2023-06-22T02:48:50;99876.44;;;17.54;100.00
44103;BME280;29769;42.178;24.742;2023-06-22T02:51:35;99884.53;;;17.51;100.00
44103;BME280;29769;42.178;24.742;2023-06-22T02:54:20;99884.97;;;17.40;100.00
44103;BME280;29769;42.178;24.742;2023-06-22T02:57:07;99882.31;;;17.40;100.00
44103;BME280;29769;42.178;24.742;2023-06-22T02:59:59;99870.06;;;17.36;100.00
44103;BME280;29769;42.178;24.742;2023-06-22T03:02:44;99878.13;;;17.34;100.00
44103;BME280;29769;42.178;24.742;2023-06-22T03:05:29;99884.59;;;17.27;100.00
44103;BME280;29769;42.178;24.742;2023-06-22T03:08:16;99887.25;;;17.27;100.00
44103;BME280;29769;42.178;24.742;2023-06-22T03:11:00;99889.81;;;17.30;100.00
44103;BME280;29769;42.178;24.742;2023-06-22T03:13:45;99887.94;;;17.32;100.00
44103;BME280;29769;42.178;24.742;2023-06-22T03:16:31;99895.91;;;17.32;100.00
44103;BME280;29769;42.178;24.742;2023-06-22T03:19:16;99892.19;;;17.37;100.00
44103;BME280;29769;42.178;24.742;2023-06-22T03:22:00;99901.75;;;17.42;100.00
44103;BME280;29769;42.178;24.742;2023-06-22T03:24:45;99903.16;;;17.51;100.00
44103;BME280;29769;42.178;24.742;2023-06-22T03:27:30;99905.34;;;17.63;100.00
44103;BME280;29769;42.178;24.742;2023-06-22T03:30:14;99905.66;;;17.77;100.00
44103;BME280;29769;42.178;24.742;2023-06-22T03:32:59;99906.97;;;17.89;100.00
44103;BME280;29769;42.178;24.742;2023-06-22T03:35:44;99915.03;;;17.86;100.00
44103;BME280;29769;42.178;24.742;2023-06-22T03:38:29;99913.75;;;17.96;100.00
44103;BME280;29769;42.178;24.742;2023-06-22T03:41:16;99915.03;;;18.07;100.00
44103;BME280;29769;42.178;24.742;2023-06-22T03:44:01;99907.25;;;18.23;100.00
44103;BME280;29769;42.178;24.742;2023-06-22T03:46:45;99909.94;;;18.43;100.00
44103;BME280;29769;42.178;24.742;2023-06-22T03:49:30;99899.78;;;18.53;100.00
44103;BME280;29769;42.178;24.742;2023-06-22T03:52:15;99913.47;;;18.64;100.00
44103;BME280;29769;42.178;24.742;2023-06-22T03:54:59;99904.19;;;18.73;100.00
44103;BME280;29769;42.178;24.742;2023-06-22T03:57:44;99901.94;;;18.63;100.00
44103;BME280;29769;42.178;24.742;2023-06-22T04:00:28;99907.94;;;18.48;100.00
44103;BME280;29769;42.178;24.742;2023-06-22T04:03:14;99878.38;;;18.34;100.00
44103;BME280;29769;42.178;24.742;2023-06-22T04:05:59;99894.97;;;18.61;100.00
44103;BME280;29769;42.178;24.742;2023-06-22T04:08:45;99901.53;;;18.73;100.00
44103;BME280;29769;42.178;24.742;2023-06-22T04:11:32;99904.84;;;18.78;100.00
44103;BME280;29769;42.178;24.742;2023-06-22T04:14:17;99906.00;;;18.91;100.00
44103;BME280;29769;42.178;24.742;2023-06-22T04:17:02;99912.25;;;19.10;100.00
44103;BME280;29769;42.178;24.742;2023-06-22T04:19:46;99903.16;;;19.14;100.00
44103;BME280;29769;42.178;24.742;2023-06-22T04:22:31;99919.16;;;19.33;100.00
44103;BME280;29769;42.178;24.742;2023-06-22T04:25:16;99911.81;;;19.57;100.00
44103;BME280;29769;42.178;24.742;2023-06-22T04:28:01;99914.25;;;19.80;100.00
44103;BME280;29769;42.178;24.742;2023-06-22T04:30:47;99908.97;;;19.95;100.00
44103;BME280;29769;42.178;24.742;2023-06-22T04:33:32;99914.91;;;20.02;100.00
44103;BME280;29769;42.178;24.742;2023-06-22T04:36:16;99914.91;;;20.19;100.00
44103;BME280;29769;42.178;24.742;2023-06-22T04:39:01;99916.91;;;20.33;100.00
44103;BME280;29769;42.178;24.742;2023-06-22T04:41:45;99923.31;;;20.46;100.00
44103;BME280;29769;42.178;24.742;2023-06-22T04:44:30;99924.97;;;20.66;100.00
44103;BME280;29769;42.178;24.742;2023-06-22T04:47:15;99914.69;;;20.91;100.00
44103;BME280;29769;42.178;24.742;2023-06-22T04:50:00;99917.47;;;21.05;100.00
44103;BME280;29769;42.178;24.742;2023-06-22T04:52:50;99914.25;;;21.32;100.00
44103;BME280;29769;42.178;24.742;2023-06-22T04:55:35;99925.06;;;21.46;100.00
44103;BME280;29769;42.178;24.742;2023-06-22T04:58:22;99919.72;;;21.61;100.00
44103;BME280;29769;42.178;24.742;2023-06-22T05:01:06;99912.25;;;21.82;100.00
44103;BME280;29769;42.178;24.742;2023-06-22T05:03:53;99913.13;;;21.83;100.00
44103;BME280;29769;42.178;24.742;2023-06-22T05:06:40;99911.03;;;22.03;100.00
44103;BME280;29769;42.178;24.742;2023-06-22T05:09:25;99907.53;;;22.17;100.00
44103;BME280;29769;42.178;24.742;2023-06-22T05:12:10;99900.25;;;22.35;100.00
44103;BME280;29769;42.178;24.742;2023-06-22T05:14:56;99900.53;;;22.58;100.00
44103;BME280;29769;42.178;24.742;2023-06-22T05:17:40;99901.53;;;22.72;100.00
44103;BME280;29769;42.178;24.742;2023-06-22T05:20:27;99907.63;;;22.89;100.00
44103;BME280;29769;42.178;24.742;2023-06-22T05:23:11;99898.41;;;23.08;100.00
44103;BME280;29769;42.178;24.742;2023-06-22T05:25:56;99896.38;;;23.11;100.00
44103;BME280;29769;42.178;24.742;2023-06-22T05:28:42;99903.84;;;23.20;100.00
44103;BME280;29769;42.178;24.742;2023-06-22T05:31:30;99904.13;;;23.44;100.00
44103;BME280;29769;42.178;24.742;2023-06-22T05:34:14;99907.56;;;23.46;100.00
44103;BME280;29769;42.178;24.742;2023-06-22T05:36:59;99910.22;;;23.60;100.00
44103;BME280;29769;42.178;24.742;2023-06-22T05:39:43;99910.97;;;23.62;100.00
44103;BME280;29769;42.178;24.742;2023-06-22T05:42:28;99910.16;;;23.88;100.00
44103;BME280;29769;42.178;24.742;2023-06-22T05:45:13;99911.06;;;24.14;100.00
44103;BME280;29769;42.178;24.742;2023-06-22T05:47:57;99909.94;;;24.18;100.00
44103;BME280;29769;42.178;24.742;2023-06-22T05:50:42;99916.97;;;24.33;100.00
44103;BME280;29769;42.178;24.742;2023-06-22T05:53:26;99913.13;;;24.63;100.00
44103;BME280;29769;42.178;24.742;2023-06-22T05:56:11;99908.19;;;24.82;100.00
44103;BME280;29769;42.178;24.742;2023-06-22T05:58:56;99905.72;;;24.92;100.00
44103;BME280;29769;42.178;24.742;2023-06-22T06:01:40;99901.09;;;25.06;100.00
44103;BME280;29769;42.178;24.742;2023-06-22T06:04:25;99903.25;;;25.01;100.00
44103;BME280;29769;42.178;24.742;2023-06-22T06:07:09;99904.41;;;25.10;100.00
44103;BME280;29769;42.178;24.742;2023-06-22T06:09:54;99910.22;;;25.29;100.00
44103;BME280;29769;42.178;24.742;2023-06-22T06:12:38;99911.03;;;25.42;100.00
44103;BME280;29769;42.178;24.742;2023-06-22T06:15:23;99907.91;;;25.61;100.00
44103;BME280;29769;42.178;24.742;2023-06-22T06:18:08;99897.72;;;25.28;100.00
44103;BME280;29769;42.178;24.742;2023-06-22T06:20:52;99895.16;;;25.50;100.00
44103;BME280;29769;42.178;24.742;2023-06-22T06:23:37;99893.50;;;25.73;100.00
44103;BME280;29769;42.178;24.742;2023-06-22T06:26:22;99889.16;;;25.83;100.00
44103;BME280;29769;42.178;24.742;2023-06-22T06:29:12;99893.72;;;25.94;100.00
44103;BME280;29769;42.178;24.742;2023-06-22T06:31:56;99895.25;;;26.09;100.00
44103;BME280;29769;42.178;24.742;2023-06-22T06:34:41;99895.31;;;26.20;100.00
44103;BME280;29769;42.178;24.742;2023-06-22T06:37:25;99887.31;;;26.42;100.00
44103;BME280;29769;42.178;24.742;2023-06-22T06:40:11;99893.09;;;26.49;98.32
44103;BME280;29769;42.178;24.742;2023-06-22T06:42:56;99889.06;;;26.43;95.22
44103;BME280;29769;42.178;24.742;2023-06-22T06:45:40;99887.59;;;26.50;97.41
44103;BME280;29769;42.178;24.742;2023-06-22T06:48:25;99891.84;;;26.88;93.45
44103;BME280;29769;42.178;24.742;2023-06-22T06:51:10;99890.63;;;27.14;90.00
44103;BME280;29769;42.178;24.742;2023-06-22T06:53:54;99886.91;;;27.37;90.09
44103;BME280;29769;42.178;24.742;2023-06-22T06:56:39;99892.34;;;27.15;87.56
44103;BME280;29769;42.178;24.742;2023-06-22T06:59:23;99897.34;;;27.42;86.96
44103;BME280;29769;42.178;24.742;2023-06-22T07:02:08;99891.06;;;27.75;81.98
44103;BME280;29769;42.178;24.742;2023-06-22T07:04:52;99880.53;;;27.93;68.38
44103;BME280;29769;42.178;24.742;2023-06-22T07:07:39;99886.47;;;27.86;68.39
44103;BME280;29769;42.178;24.742;2023-06-22T07:10:25;99883.84;;;27.96;67.90
44103;BME280;29769;42.178;24.742;2023-06-22T07:13:10;99885.50;;;28.08;67.97
44103;BME280;29769;42.178;24.742;2023-06-22T07:15:54;99884.31;;;28.33;65.92
44103;BME280;29769;42.178;24.742;2023-06-22T07:18:39;99890.41;;;28.46;66.71
44103;BME280;29769;42.178;24.742;2023-06-22T07:21:24;99893.84;;;28.48;64.78
44103;BME280;29769;42.178;24.742;2023-06-22T07:24:09;99893.16;;;28.35;65.62
44103;BME280;29769;42.178;24.742;2023-06-22T07:26:54;99883.50;;;27.90;65.64
44103;BME280;29769;42.178;24.742;2023-06-22T07:29:38;99890.72;;;28.11;67.40
44103;BME280;29769;42.178;24.742;2023-06-22T07:32:27;99891.84;;;28.29;66.12
44103;BME280;29769;42.178;24.742;2023-06-22T07:35:12;99893.78;;;28.39;66.06
44103;BME280;29769;42.178;24.742;2023-06-22T07:37:57;99894.75;;;28.38;65.94
44103;BME280;29769;42.178;24.742;2023-06-22T07:40:41;99899.75;;;28.21;64.91
44103;BME280;29769;42.178;24.742;2023-06-22T07:43:26;99903.34;;;28.43;65.32
44103;BME280;29769;42.178;24.742;2023-06-22T07:46:10;99907.00;;;28.62;59.59
44103;BME280;29769;42.178;24.742;2023-06-22T07:48:56;99895.88;;;28.77;60.36
44103;BME280;29769;42.178;24.742;2023-06-22T07:51:40;99886.47;;;29.01;59.82
44103;BME280;29769;42.178;24.742;2023-06-22T07:54:25;99890.16;;;29.00;59.77
44103;BME280;29769;42.178;24.742;2023-06-22T07:57:09;99895.47;;;29.32;59.91
44103;BME280;29769;42.178;24.742;2023-06-22T07:59:54;99886.72;;;29.78;58.49
44103;BME280;29769;42.178;24.742;2023-06-22T08:02:39;99884.41;;;29.54;57.31
44103;BME280;29769;42.178;24.742;2023-06-22T08:05:24;99877.59;;;29.70;57.76
44103;BME280;29769;42.178;24.742;2023-06-22T08:08:09;99872.03;;;29.62;59.17
44103;BME280;29769;42.178;24.742;2023-06-22T08:10:53;99873.97;;;29.50;58.59
44103;BME280;29769;42.178;24.742;2023-06-22T08:13:38;99872.53;;;29.46;56.90
44103;BME280;29769;42.178;24.742;2023-06-22T08:16:22;99864.59;;;29.64;56.86
44103;BME280;29769;42.178;24.742;2023-06-22T08:19:07;99858.94;;;30.15;55.52
44103;BME280;29769;42.178;24.742;2023-06-22T08:21:52;99868.22;;;30.22;53.94
44103;BME280;29769;42.178;24.742;2023-06-22T08:24:36;99863.78;;;30.50;51.71
44103;BME280;29769;42.178;24.742;2023-06-22T08:27:21;99869.16;;;30.78;50.56
44103;BME280;29769;42.178;24.742;2023-06-22T08:30:09;99850.59;;;30.64;52.36
44103;BME280;29769;42.178;24.742;2023-06-22T08:32:55;99846.50;;;31.07;51.41
44103;BME280;29769;42.178;24.742;2023-06-22T08:35:41;99850.75;;;31.09;51.08
44103;BME280;29769;42.178;24.742;2023-06-22T08:38:26;99845.69;;;31.24;49.83
44103;BME280;29769;42.178;24.742;2023-06-22T08:41:10;99840.66;;;31.56;47.63
44103;BME280;29769;42.178;24.742;2023-06-22T08:43:55;99840.69;;;32.09;47.45
44103;BME280;29769;42.178;24.742;2023-06-22T08:46:40;99841.63;;;32.18;45.85
44103;BME280;29769;42.178;24.742;2023-06-22T08:49:26;99837.84;;;32.37;44.47
44103;BME280;29769;42.178;24.742;2023-06-22T08:52:10;99841.28;;;32.39;43.59
44103;BME280;29769;42.178;24.742;2023-06-22T08:54:55;99847.25;;;31.71;43.46
44103;BME280;29769;42.178;24.742;2023-06-22T08:57:40;99846.34;;;32.34;44.05
44103;BME280;29769;42.178;24.742;2023-06-22T09:00:24;99842.28;;;32.89;41.85
44103;BME280;29769;42.178;24.742;2023-06-22T09:03:09;99840.19;;;32.75;42.97
44103;BME280;29769;42.178;24.742;2023-06-22T09:05:54;99841.84;;;32.68;43.07
44103;BME280;29769;42.178;24.742;2023-06-22T09:08:38;99830.09;;;32.68;41.16
44103;BME280;29769;42.178;24.742;2023-06-22T09:11:22;99832.84;;;33.01;38.44
44103;BME280;29769;42.178;24.742;2023-06-22T09:14:08;99848.16;;;33.28;37.06
44103;BME280;29769;42.178;24.742;2023-06-22T09:16:52;99838.34;;;33.51;37.26
44103;BME280;29769;42.178;24.742;2023-06-22T09:19:37;99834.50;;;34.03;35.87
44103;BME280;29769;42.178;24.742;2023-06-22T09:22:22;99835.53;;;34.66;35.38
44103;BME280;29769;42.178;24.742;2023-06-22T09:25:07;99806.25;;;34.99;33.90
44103;BME280;29769;42.178;24.742;2023-06-22T09:27:52;99829.28;;;35.52;32.74
44103;BME280;29769;42.178;24.742;2023-06-22T09:30:36;99820.56;;;35.17;31.52
44103;BME280;29769;42.178;24.742;2023-06-22T09:33:21;99819.53;;;35.10;31.05
44103;BME280;29769;42.178;24.742;2023-06-22T09:36:06;99818.56;;;35.73;29.73
44103;BME280;29769;42.178;24.742;2023-06-22T09:38:51;99823.91;;;35.66;29.97
44103;BME280;29769;42.178;24.742;2023-06-22T09:41:40;99817.13;;;36.45;29.53
44103;BME280;29769;42.178;24.742;2023-06-22T09:44:24;99809.59;;;37.50;29.17
44103;BME280;29769;42.178;24.742;2023-06-22T09:47:09;99813.84;;;38.52;27.39
44103;BME280;29769;42.178;24.742;2023-06-22T09:49:53;99810.06;;;39.29;27.12
44103;BME280;29769;42.178;24.742;2023-06-22T09:52:39;99808.56;;;38.08;28.57
44103;BME280;29769;42.178;24.742;2023-06-22T09:55:26;99800.53;;;37.71;29.44
44103;BME280;29769;42.178;24.742;2023-06-22T09:58:11;99803.06;;;38.30;28.14
44103;BME280;29769;42.178;24.742;2023-06-22T10:00:56;99809.09;;;39.02;26.72
44103;BME280;29769;42.178;24.742;2023-06-22T10:03:41;99805.56;;;39.69;26.57
44103;BME280;29769;42.178;24.742;2023-06-22T10:06:28;99805.44;;;40.75;25.42
44103;BME280;29769;42.178;24.742;2023-06-22T10:09:13;99798.59;;;41.11;24.79
44103;BME280;29769;42.178;24.742;2023-06-22T10:11:58;99793.28;;;41.16;25.21
44103;BME280;29769;42.178;24.742;2023-06-22T10:14:42;99796.56;;;40.47;25.83
44103;BME280;29769;42.178;24.742;2023-06-22T10:17:27;99798.88;;;41.41;24.52
44103;BME280;29769;42.178;24.742;2023-06-22T10:20:12;99798.72;;;41.73;24.28
44103;BME280;29769;42.178;24.742;2023-06-22T10:22:57;99794.25;;;42.60;23.96
44103;BME280;29769;42.178;24.742;2023-06-22T10:25:41;99792.13;;;42.37;23.18
44103;BME280;29769;42.178;24.742;2023-06-22T10:28:26;99787.91;;;41.21;23.92
44103;BME280;29769;42.178;24.742;2023-06-22T10:31:10;99785.75;;;40.19;23.88
44103;BME280;29769;42.178;24.742;2023-06-22T10:33:55;99786.19;;;40.23;24.31
44103;BME280;29769;42.178;24.742;2023-06-22T10:36:40;99790.47;;;41.67;23.31
44103;BME280;29769;42.178;24.742;2023-06-22T10:39:24;99788.72;;;42.60;22.75
44103;BME280;29769;42.178;24.742;2023-06-22T10:42:09;99771.50;;;43.49;21.46
44103;BME280;29769;42.178;24.742;2023-06-22T10:44:54;99771.75;;;43.77;20.89
44103;BME280;29769;42.178;24.742;2023-06-22T10:47:39;99770.31;;;44.28;20.52
44103;BME280;29769;42.178;24.742;2023-06-22T10:50:24;99766.56;;;44.57;20.09
44103;BME280;29769;42.178;24.742;2023-06-22T10:53:09;99753.78;;;44.45;20.47
44103;BME280;29769;42.178;24.742;2023-06-22T10:55:54;99755.00;;;44.84;20.20
44103;BME280;29769;42.178;24.742;2023-06-22T10:58:39;99753.91;;;45.65;19.33
44103;BME280;29769;42.178;24.742;2023-06-22T11:01:23;99752.53;;;45.79;19.57
44103;BME280;29769;42.178;24.742;2023-06-22T11:04:08;99749.53;;;44.89;20.14
44103;BME280;29769;42.178;24.742;2023-06-22T11:06:52;99745.88;;;45.51;19.75
44103;BME280;29769;42.178;24.742;2023-06-22T11:09:37;99746.97;;;45.50;19.50
44103;BME280;29769;42.178;24.742;2023-06-22T11:12:23;99741.19;;;45.52;19.54
44103;BME280;29769;42.178;24.742;2023-06-22T11:15:08;99749.16;;;45.77;19.21
44103;BME280;29769;42.178;24.742;2023-06-22T11:17:53;99743.78;;;46.37;18.76
44103;BME280;29769;42.178;24.742;2023-06-22T11:20:38;99740.06;;;46.86;18.18
44103;BME280;29769;42.178;24.742;2023-06-22T11:23:23;99740.94;;;47.09;18.52
44103;BME280;29769;42.178;24.742;2023-06-22T11:26:10;99747.03;;;47.54;18.02
44103;BME280;29769;42.178;24.742;2023-06-22T11:28:55;99748.97;;;47.54;18.32
44103;BME280;29769;42.178;24.742;2023-06-22T11:31:39;99743.25;;;47.60;18.43
44103;BME280;29769;42.178;24.742;2023-06-22T11:34:24;99740.13;;;47.84;18.22
44103;BME280;29769;42.178;24.742;2023-06-22T11:37:09;99747.72;;;47.93;17.96
44103;BME280;29769;42.178;24.742;2023-06-22T11:39:53;99747.28;;;47.53;17.92
44103;BME280;29769;42.178;24.742;2023-06-22T11:42:41;99738.31;;;47.02;18.05
44103;BME280;29769;42.178;24.742;2023-06-22T11:45:25;99738.44;;;45.40;18.91
44103;BME280;29769;42.178;24.742;2023-06-22T11:48:10;99745.69;;;43.67;20.47
44103;BME280;29769;42.178;24.742;2023-06-22T11:50:54;99733.56;;;41.97;21.84
44103;BME280;29769;42.178;24.742;2023-06-22T11:53:40;99731.34;;;42.92;21.42
44103;BME280;29769;42.178;24.742;2023-06-22T11:56:24;99733.00;;;41.51;22.24
44103;BME280;29769;42.178;24.742;2023-06-22T11:59:09;99732.16;;;41.82;22.57
44103;BME280;29769;42.178;24.742;2023-06-22T12:01:53;99728.72;;;43.45;21.61
44103;BME280;29769;42.178;24.742;2023-06-22T12:04:38;99733.28;;;44.11;20.88
44103;BME280;29769;42.178;24.742;2023-06-22T12:07:22;99730.53;;;44.69;20.45
44103;BME280;29769;42.178;24.742;2023-06-22T12:10:07;99729.88;;;44.09;20.62
44103;BME280;29769;42.178;24.742;2023-06-22T12:12:51;99732.41;;;43.39;21.22
44103;BME280;29769;42.178;24.742;2023-06-22T12:15:36;99722.41;;;44.21;20.52
44103;BME280;29769;42.178;24.742;2023-06-22T12:18:21;99715.03;;;44.85;20.34
44103;BME280;29769;42.178;24.742;2023-06-22T12:21:06;99717.63;;;44.40;20.03
44103;BME280;29769;42.178;24.742;2023-06-22T12:23:51;99706.38;;;44.23;21.12
44103;BME280;29769;42.178;24.742;2023-06-22T12:26:35;99718.53;;;45.32;20.13
44103;BME280;29769;42.178;24.742;2023-06-22T12:29:20;99702.38;;;46.40;19.39
44103;BME280;29769;42.178;24.742;2023-06-22T12:32:04;99704.53;;;46.33;19.11
44103;BME280;29769;42.178;24.742;2023-06-22T12:34:49;99705.81;;;46.86;19.38
44103;BME280;29769;42.178;24.742;2023-06-22T12:37:34;99708.91;;;47.11;19.18
44103;BME280;29769;42.178;24.742;2023-06-22T12:40:18;99701.19;;;46.75;18.83
44103;BME280;29769;42.178;24.742;2023-06-22T12:43:04;99699.25;;;46.92;18.72
44103;BME280;29769;42.178;24.742;2023-06-22T12:45:48;99697.19;;;47.31;18.59
44103;BME280;29769;42.178;24.742;2023-06-22T12:48:33;99693.97;;;46.35;18.40
44103;BME280;29769;42.178;24.742;2023-06-22T12:51:21;99690.75;;;45.03;19.76
44103;BME280;29769;42.178;24.742;2023-06-22T12:54:06;99692.22;;;43.07;20.81
44103;BME280;29769;42.178;24.742;2023-06-22T12:56:51;99691.66;;;42.62;21.54
44103;BME280;29769;42.178;24.742;2023-06-22T12:59:35;99694.28;;;42.56;21.83
44103;BME280;29769;42.178;24.742;2023-06-22T13:02:20;99681.56;;;42.31;22.11
44103;BME280;29769;42.178;24.742;2023-06-22T13:05:04;99684.75;;;41.53;23.25
44103;BME280;29769;42.178;24.742;2023-06-22T13:07:49;99686.88;;;41.20;23.59
44103;BME280;29769;42.178;24.742;2023-06-22T13:10:34;99693.44;;;40.68;24.27
44103;BME280;29769;42.178;24.742;2023-06-22T13:13:18;99693.75;;;40.00;24.99
44103;BME280;29769;42.178;24.742;2023-06-22T13:16:03;99690.16;;;39.00;26.26
44103;BME280;29769;42.178;24.742;2023-06-22T13:18:47;99682.66;;;37.91;28.03
44103;BME280;29769;42.178;24.742;2023-06-22T13:21:32;99688.81;;;37.65;28.74
44103;BME280;29769;42.178;24.742;2023-06-22T13:24:18;99685.44;;;37.27;29.45
44103;BME280;29769;42.178;24.742;2023-06-22T13:27:03;99689.19;;;36.90;30.28
44103;BME280;29769;42.178;24.742;2023-06-22T13:29:48;99687.16;;;36.33;30.67
44103;BME280;29769;42.178;24.742;2023-06-22T13:32:32;99698.53;;;35.70;32.10
44103;BME280;29769;42.178;24.742;2023-06-22T13:35:17;99689.56;;;35.53;32.46
44103;BME280;29769;42.178;24.742;2023-06-22T13:38:02;99697.59;;;35.01;33.64
44103;BME280;29769;42.178;24.742;2023-06-22T13:40:48;99693.81;;;34.63;34.81
44103;BME280;29769;42.178;24.742;2023-06-22T13:43:33;99695.44;;;34.42;35.11
44103;BME280;29769;42.178;24.742;2023-06-22T13:46:17;99698.38;;;34.24;37.38
44103;BME280;29769;42.178;24.742;2023-06-22T13:49:02;99694.47;;;34.18;38.48
44103;BME280;29769;42.178;24.742;2023-06-22T13:51:47;99690.56;;;33.88;39.64
44103;BME280;29769;42.178;24.742;2023-06-22T13:54:34;99675.72;;;33.59;39.96
44103;BME280;29769;42.178;24.742;2023-06-22T13:57:19;99679.81;;;33.71;38.38
44103;BME280;29769;42.178;24.742;2023-06-22T14:00:04;99679.47;;;33.66;39.16
44103;BME280;29769;42.178;24.742;2023-06-22T14:03:00;99676.03;;;33.39;36.82
44103;BME280;29769;42.178;24.742;2023-06-22T14:05:44;99680.16;;;33.51;38.40
44103;BME280;29769;42.178;24.742;2023-06-22T14:08:29;99691.06;;;33.51;37.48
44103;BME280;29769;42.178;24.742;2023-06-22T14:11:14;99695.50;;;33.53;36.85
44103;BME280;29769;42.178;24.742;2023-06-22T14:13:58;99685.91;;;33.16;37.50
44103;BME280;29769;42.178;24.742;2023-06-22T14:16:43;99686.94;;;33.15;38.23
44103;BME280;29769;42.178;24.742;2023-06-22T14:19:27;99682.34;;;33.24;39.10
44103;BME280;29769;42.178;24.742;2023-06-22T14:22:12;99684.56;;;33.44;38.08
44103;BME280;29769;42.178;24.742;2023-06-22T14:24:57;99679.13;;;33.36;37.58
44103;BME280;29769;42.178;24.742;2023-06-22T14:27:43;99677.03;;;33.22;37.41